sensor_id;sensor_type;location;lat;lon;timestamp;pressure;altitude;pressure_sealevel;temperature;humidity
74881;BME280;63427;49.654;6.596;2023-03-21T00:01:59;99949.62;;;12.01;37.61
74881;BME280;63427;49.654;6.596;2023-03-21T00:04:26;99947.36;;;11.89;38.03
74881;BME280;63427;49.654;6.596;2023-03-21T00:06:51;99946.21;;;11.97;37.48
74881;BME280;63427;49.654;6.596;2023-03-21T00:09:17;99940.82;;;11.47;37.89
74881;BME280;63427;49.654;6.596;2023-03-21T00:11:42;99938.68;;;11.56;38.23
74881;BME280;63427;49.654;6.596;2023-03-21T00:14:08;99935.35;;;11.47;38.39
74881;BME280;63427;49.654;6.596;2023-03-21T00:16:33;99930.04;;;11.50;38.71
74881;BME280;63427;49.654;6.596;2023-03-21T00:18:59;99928.54;;;11.31;38.52
74881;BME280;63427;49.654;6.596;2023-03-21T00:21:25;99927.89;;;11.64;38.56
74881;BME280;63427;49.654;6.596;2023-03-21T00:23:50;99928.05;;;11.50;38.74
74881;BME280;63427;49.654;6.596;2023-03-21T00:26:15;99925.66;;;11.49;38.85
74881;BME280;63427;49.654;6.596;2023-03-21T00:28:42;99924.16;;;11.23;38.81
74881;BME280;63427;49.654;6.596;2023-03-21T00:31:07;99926.14;;;11.22;38.94
74881;BME280;63427;49.654;6.596;2023-03-21T00:33:32;99924.16;;;11.39;38.91
74881;BME280;63427;49.654;6.596;2023-03-21T00:35:57;99921.75;;;11.64;38.88
74881;BME280;63427;49.654;6.596;2023-03-21T00:38:23;99921.04;;;11.50;38.55
74881;BME280;63427;49.654;6.596;2023-03-21T00:40:49;99918.56;;;11.64;38.32
74881;BME280;63427;49.654;6.596;2023-03-21T00:43:15;99917.09;;;11.64;38.43
74881;BME280;63427;49.654;6.596;2023-03-21T00:45:40;99919.34;;;11.33;38.53
74881;BME280;63427;49.654;6.596;2023-03-21T00:48:06;99918.38;;;11.37;39.04
74881;BME280;63427;49.654;6.596;2023-03-21T00:50:31;99915.60;;;11.64;38.80
74881;BME280;63427;49.654;6.596;2023-03-21T00:52:56;99912.87;;;11.25;38.61
74881;BME280;63427;49.654;6.596;2023-03-21T00:55:22;99907.61;;;11.67;38.72
74881;BME280;63427;49.654;6.596;2023-03-21T00:57:47;99904.13;;;11.52;38.92
74881;BME280;63427;49.654;6.596;2023-03-21T01:00:14;99899.14;;;11.39;38.70
74881;BME280;63427;49.654;6.596;2023-03-21T01:02:39;99900.16;;;11.31;38.61
74881;BME280;63427;49.654;6.596;2023-03-21T01:05:04;99896.49;;;11.39;38.56
74881;BME280;63427;49.654;6.596;2023-03-21T01:07:29;99898.73;;;11.70;38.41
74881;BME280;63427;49.654;6.596;2023-03-21T01:09:55;99896.61;;;11.59;38.15
74881;BME280;63427;49.654;6.596;2023-03-21T01:12:20;99895.70;;;11.62;38.22
74881;BME280;63427;49.654;6.596;2023-03-21T01:14:46;99895.22;;;11.60;38.01
74881;BME280;63427;49.654;6.596;2023-03-21T01:17:12;99892.90;;;11.68;38.03
74881;BME280;63427;49.654;6.596;2023-03-21T01:19:38;99888.03;;;11.73;38.23
74881;BME280;63427;49.654;6.596;2023-03-21T01:22:03;99886.18;;;11.71;38.27
74881;BME280;63427;49.654;6.596;2023-03-21T01:24:29;99882.48;;;11.68;38.33
74881;BME280;63427;49.654;6.596;2023-03-21T01:26:54;99881.18;;;11.88;38.60
74881;BME280;63427;49.654;6.596;2023-03-21T01:29:20;99881.56;;;11.64;38.68
74881;BME280;63427;49.654;6.596;2023-03-21T01:31:45;99879.13;;;11.68;38.29
74881;BME280;63427;49.654;6.596;2023-03-21T01:34:11;99878.39;;;11.67;38.28
74881;BME280;63427;49.654;6.596;2023-03-21T01:36:37;99872.95;;;11.64;38.67
74881;BME280;63427;49.654;6.596;2023-03-21T01:39:03;99871.64;;;11.27;38.70
74881;BME280;63427;49.654;6.596;2023-03-21T01:41:30;99867.97;;;11.42;38.73
74881;BME280;63427;49.654;6.596;2023-03-21T01:43:54;99865.11;;;11.27;39.32
74881;BME280;63427;49.654;6.596;2023-03-21T01:46:27;99862.20;;;11.46;39.06
74881;BME280;63427;49.654;6.596;2023-03-21T01:48:46;99860.15;;;11.45;38.66
74881;BME280;63427;49.654;6.596;2023-03-21T01:51:11;99855.61;;;11.58;38.88
74881;BME280;63427;49.654;6.596;2023-03-21T01:53:38;99853.55;;;11.49;39.28
74881;BME280;63427;49.654;6.596;2023-03-21T01:56:07;99851.63;;;11.55;39.21
74881;BME280;63427;49.654;6.596;2023-03-21T01:58:27;99848.06;;;11.71;38.44
74881;BME280;63427;49.654;6.596;2023-03-21T02:00:53;99844.85;;;11.49;38.83
74881;BME280;63427;49.654;6.596;2023-03-21T02:03:18;99837.36;;;11.80;38.60
74881;BME280;63427;49.654;6.596;2023-03-21T02:05:50;99835.32;;;11.87;38.42
74881;BME280;63427;49.654;6.596;2023-03-21T02:08:09;99836.76;;;11.70;38.47
74881;BME280;63427;49.654;6.596;2023-03-21T02:10:36;99837.22;;;11.90;38.70
74881;BME280;63427;49.654;6.596;2023-03-21T02:13:03;99833.90;;;11.88;38.28
74881;BME280;63427;49.654;6.596;2023-03-21T02:15:26;99833.42;;;11.76;38.97
74881;BME280;63427;49.654;6.596;2023-03-21T02:17:55;99830.90;;;11.60;38.98
74881;BME280;63427;49.654;6.596;2023-03-21T02:25:25;99811.94;;;11.67;38.61
74881;BME280;63427;49.654;6.596;2023-03-21T02:27:36;99810.03;;;11.86;38.28
74881;BME280;63427;49.654;6.596;2023-03-21T02:30:22;99806.36;;;11.75;38.30
74881;BME280;63427;49.654;6.596;2023-03-21T02:32:34;99797.97;;;11.93;38.62
74881;BME280;63427;49.654;6.596;2023-03-21T02:35:03;99792.91;;;11.97;38.37
74881;BME280;63427;49.654;6.596;2023-03-21T02:37:20;99791.65;;;12.03;38.17
74881;BME280;63427;49.654;6.596;2023-03-21T02:39:51;99795.08;;;12.11;37.81
74881;BME280;63427;49.654;6.596;2023-03-21T02:42:11;99794.98;;;11.93;37.70
74881;BME280;63427;49.654;6.596;2023-03-21T02:44:38;99796.44;;;12.10;38.21
74881;BME280;63427;49.654;6.596;2023-03-21T02:47:02;99797.46;;;11.77;38.10
74881;BME280;63427;49.654;6.596;2023-03-21T02:49:28;99794.71;;;12.01;38.19
74881;BME280;63427;49.654;6.596;2023-03-21T02:51:50;99792.80;;;11.65;37.90
74881;BME280;63427;49.654;6.596;2023-03-21T02:54:17;99792.10;;;11.85;37.69
74881;BME280;63427;49.654;6.596;2023-03-21T02:56:42;99789.94;;;12.11;37.78
74881;BME280;63427;49.654;6.596;2023-03-21T02:59:07;99792.48;;;12.18;38.04
74881;BME280;63427;49.654;6.596;2023-03-21T03:01:32;99789.28;;;11.75;37.70
74881;BME280;63427;49.654;6.596;2023-03-21T03:03:58;99788.80;;;12.16;37.79
74881;BME280;63427;49.654;6.596;2023-03-21T03:06:28;99782.87;;;12.18;37.82
74881;BME280;63427;49.654;6.596;2023-03-21T03:09:01;99780.46;;;12.24;37.94
74881;BME280;63427;49.654;6.596;2023-03-21T03:11:22;99776.12;;;12.17;38.07
74881;BME280;63427;49.654;6.596;2023-03-21T03:13:52;99776.04;;;12.04;37.93
74881;BME280;63427;49.654;6.596;2023-03-21T03:16:14;99774.68;;;12.20;38.14
74881;BME280;63427;49.654;6.596;2023-03-21T03:18:39;99776.55;;;11.99;37.68
74881;BME280;63427;49.654;6.596;2023-03-21T03:21:02;99771.05;;;12.30;37.29
74881;BME280;63427;49.654;6.596;2023-03-21T03:23:26;99766.17;;;12.14;37.68
74881;BME280;63427;49.654;6.596;2023-03-21T03:25:52;99763.24;;;12.05;38.05
74881;BME280;63427;49.654;6.596;2023-03-21T03:28:16;99762.32;;;12.02;37.74
74881;BME280;63427;49.654;6.596;2023-03-21T03:30:40;99766.33;;;12.29;37.69
74881;BME280;63427;49.654;6.596;2023-03-21T03:33:05;99765.63;;;12.08;37.74
74881;BME280;63427;49.654;6.596;2023-03-21T03:35:31;99764.47;;;11.75;37.53
74881;BME280;63427;49.654;6.596;2023-03-21T03:37:59;99758.64;;;11.93;37.69
74881;BME280;63427;49.654;6.596;2023-03-21T03:40:26;99761.91;;;12.12;37.61
74881;BME280;63427;49.654;6.596;2023-03-21T03:42:50;99759.47;;;12.27;37.42
74881;BME280;63427;49.654;6.596;2023-03-21T03:45:14;99759.84;;;12.00;37.45
74881;BME280;63427;49.654;6.596;2023-03-21T03:47:42;99757.65;;;12.25;37.55
74881;BME280;63427;49.654;6.596;2023-03-21T03:50:08;99757.94;;;11.93;37.81
74881;BME280;63427;49.654;6.596;2023-03-21T03:52:33;99755.94;;;11.70;37.73
74881;BME280;63427;49.654;6.596;2023-03-21T03:54:56;99755.58;;;12.04;37.96
74881;BME280;63427;49.654;6.596;2023-03-21T03:57:21;99753.28;;;11.72;38.53
74881;BME280;63427;49.654;6.596;2023-03-21T03:59:47;99758.11;;;11.62;38.59
74881;BME280;63427;49.654;6.596;2023-03-21T04:02:13;99758.92;;;11.62;38.93
74881;BME280;63427;49.654;6.596;2023-03-21T04:04:38;99756.62;;;11.64;38.96
74881;BME280;63427;49.654;6.596;2023-03-21T04:07:03;99757.05;;;11.63;38.88
74881;BME280;63427;49.654;6.596;2023-03-21T04:09:29;99755.49;;;11.80;38.47
74881;BME280;63427;49.654;6.596;2023-03-21T04:11:55;99754.33;;;11.67;38.74
74881;BME280;63427;49.654;6.596;2023-03-21T04:14:20;99754.23;;;11.81;38.43
74881;BME280;63427;49.654;6.596;2023-03-21T04:16:46;99752.61;;;11.90;38.21
74881;BME280;63427;49.654;6.596;2023-03-21T04:19:12;99756.87;;;11.97;38.36
74881;BME280;63427;49.654;6.596;2023-03-21T04:21:37;99753.14;;;11.97;38.02
74881;BME280;63427;49.654;6.596;2023-03-21T04:24:03;99754.48;;;12.02;38.13
74881;BME280;63427;49.654;6.596;2023-03-21T04:26:29;99752.91;;;12.00;38.23
74881;BME280;63427;49.654;6.596;2023-03-21T04:28:54;99751.68;;;11.72;38.21
74881;BME280;63427;49.654;6.596;2023-03-21T04:31:19;99751.46;;;12.11;38.04
74881;BME280;63427;49.654;6.596;2023-03-21T04:33:45;99745.53;;;11.72;38.11
74881;BME280;63427;49.654;6.596;2023-03-21T04:36:11;99747.92;;;12.04;37.70
74881;BME280;63427;49.654;6.596;2023-03-21T04:38:36;99751.55;;;11.90;37.55
74881;BME280;63427;49.654;6.596;2023-03-21T04:41:02;99751.22;;;11.95;37.73
74881;BME280;63427;49.654;6.596;2023-03-21T04:43:28;99752.02;;;11.93;37.77
74881;BME280;63427;49.654;6.596;2023-03-21T04:45:54;99750.02;;;11.47;38.22
74881;BME280;63427;49.654;6.596;2023-03-21T04:48:19;99751.31;;;12.00;38.08
74881;BME280;63427;49.654;6.596;2023-03-21T04:50:44;99749.84;;;11.72;38.55
74881;BME280;63427;49.654;6.596;2023-03-21T04:53:10;99751.93;;;11.66;38.88
74881;BME280;63427;49.654;6.596;2023-03-21T04:55:35;99751.78;;;11.74;38.45
74881;BME280;63427;49.654;6.596;2023-03-21T04:58:01;99754.90;;;11.83;38.52
74881;BME280;63427;49.654;6.596;2023-03-21T05:00:27;99754.74;;;11.67;38.56
74881;BME280;63427;49.654;6.596;2023-03-21T05:02:52;99756.65;;;11.87;38.59
74881;BME280;63427;49.654;6.596;2023-03-21T05:05:18;99756.84;;;12.04;38.64
74881;BME280;63427;49.654;6.596;2023-03-21T05:07:43;99756.81;;;11.57;38.63
74881;BME280;63427;49.654;6.596;2023-03-21T05:10:11;99759.22;;;11.78;38.63
74881;BME280;63427;49.654;6.596;2023-03-21T05:12:35;99757.52;;;11.67;38.72
74881;BME280;63427;49.654;6.596;2023-03-21T05:15:00;99756.86;;;11.70;38.41
74881;BME280;63427;49.654;6.596;2023-03-21T05:17:26;99755.31;;;11.99;38.40
74881;BME280;63427;49.654;6.596;2023-03-21T05:19:51;99753.93;;;11.70;38.72
74881;BME280;63427;49.654;6.596;2023-03-21T05:22:18;99754.04;;;11.69;38.56
74881;BME280;63427;49.654;6.596;2023-03-21T05:24:42;99757.13;;;11.29;38.93
74881;BME280;63427;49.654;6.596;2023-03-21T05:27:08;99755.99;;;11.66;39.03
74881;BME280;63427;49.654;6.596;2023-03-21T05:29:34;99759.20;;;11.43;38.56
74881;BME280;63427;49.654;6.596;2023-03-21T05:32:00;99760.33;;;11.43;38.31
74881;BME280;63427;49.654;6.596;2023-03-21T05:34:25;99761.67;;;11.27;38.16
74881;BME280;63427;49.654;6.596;2023-03-21T05:36:51;99762.35;;;11.16;38.43
74881;BME280;63427;49.654;6.596;2023-03-21T05:39:16;99756.31;;;11.50;38.03
74881;BME280;63427;49.654;6.596;2023-03-21T05:41:41;99752.45;;;11.58;38.22
74881;BME280;63427;49.654;6.596;2023-03-21T05:44:07;99754.85;;;11.30;39.20
74881;BME280;63427;49.654;6.596;2023-03-21T05:46:33;99756.49;;;11.50;38.45
74881;BME280;63427;49.654;6.596;2023-03-21T05:48:58;99756.64;;;11.31;38.79
74881;BME280;63427;49.654;6.596;2023-03-21T05:51:24;99754.17;;;11.61;39.10
74881;BME280;63427;49.654;6.596;2023-03-21T05:53:49;99757.33;;;11.33;38.93
74881;BME280;63427;49.654;6.596;2023-03-21T05:56:14;99758.62;;;11.30;39.40
74881;BME280;63427;49.654;6.596;2023-03-21T05:58:40;99759.75;;;11.66;39.02
74881;BME280;63427;49.654;6.596;2023-03-21T06:01:07;99762.37;;;11.61;38.67
74881;BME280;63427;49.654;6.596;2023-03-21T06:03:31;99765.65;;;11.50;38.43
74881;BME280;63427;49.654;6.596;2023-03-21T06:05:57;99766.88;;;11.13;39.13
74881;BME280;63427;49.654;6.596;2023-03-21T06:08:23;99764.39;;;11.19;39.01
74881;BME280;63427;49.654;6.596;2023-03-21T06:10:48;99763.52;;;11.69;37.89
74881;BME280;63427;49.654;6.596;2023-03-21T06:13:14;99765.20;;;11.60;37.92
74881;BME280;63427;49.654;6.596;2023-03-21T06:15:40;99768.64;;;11.16;38.41
74881;BME280;63427;49.654;6.596;2023-03-21T06:18:05;99766.70;;;10.64;38.91
74881;BME280;63427;49.654;6.596;2023-03-21T06:20:31;99769.17;;;11.24;38.87
74881;BME280;63427;49.654;6.596;2023-03-21T06:22:57;99766.96;;;10.87;38.39
74881;BME280;63427;49.654;6.596;2023-03-21T06:25:22;99770.34;;;10.85;39.23
74881;BME280;63427;49.654;6.596;2023-03-21T06:27:48;99768.97;;;11.11;38.45
74881;BME280;63427;49.654;6.596;2023-03-21T06:30:14;99768.98;;;11.25;38.41
74881;BME280;63427;49.654;6.596;2023-03-21T06:32:39;99766.44;;;10.96;38.36
74881;BME280;63427;49.654;6.596;2023-03-21T06:35:05;99766.00;;;11.03;38.18
74881;BME280;63427;49.654;6.596;2023-03-21T06:37:30;99767.03;;;11.35;38.41
74881;BME280;63427;49.654;6.596;2023-03-21T06:39:55;99764.07;;;11.10;38.22
74881;BME280;63427;49.654;6.596;2023-03-21T06:42:20;99766.98;;;11.22;38.22
74881;BME280;63427;49.654;6.596;2023-03-21T06:44:46;99768.07;;;11.21;38.19
74881;BME280;63427;49.654;6.596;2023-03-21T06:47:11;99766.27;;;11.14;38.61
74881;BME280;63427;49.654;6.596;2023-03-21T06:49:37;99761.28;;;11.15;38.81
74881;BME280;63427;49.654;6.596;2023-03-21T06:52:02;99760.79;;;11.13;38.26
74881;BME280;63427;49.654;6.596;2023-03-21T06:54:28;99761.52;;;11.13;38.49
74881;BME280;63427;49.654;6.596;2023-03-21T06:56:53;99756.75;;;11.45;38.40
74881;BME280;63427;49.654;6.596;2023-03-21T06:59:19;99756.17;;;11.28;38.41
74881;BME280;63427;49.654;6.596;2023-03-21T07:01:44;99753.34;;;11.42;38.06
74881;BME280;63427;49.654;6.596;2023-03-21T07:04:10;99756.07;;;10.98;38.51
74881;BME280;63427;49.654;6.596;2023-03-21T07:06:36;99753.48;;;11.45;38.29
74881;BME280;63427;49.654;6.596;2023-03-21T07:09:01;99754.76;;;11.44;38.27
74881;BME280;63427;49.654;6.596;2023-03-21T07:11:26;99756.23;;;11.53;37.95
74881;BME280;63427;49.654;6.596;2023-03-21T07:13:52;99757.88;;;11.34;38.15
74881;BME280;63427;49.654;6.596;2023-03-21T07:16:19;99763.74;;;11.24;38.29
74881;BME280;63427;49.654;6.596;2023-03-21T07:18:43;99763.16;;;11.05;38.63
74881;BME280;63427;49.654;6.596;2023-03-21T07:21:09;99765.83;;;11.79;38.44
74881;BME280;63427;49.654;6.596;2023-03-21T07:23:35;99768.26;;;11.46;38.10
74881;BME280;63427;49.654;6.596;2023-03-21T07:26:00;99769.59;;;11.43;38.48
74881;BME280;63427;49.654;6.596;2023-03-21T07:28:26;99768.52;;;11.66;38.48
74881;BME280;63427;49.654;6.596;2023-03-21T07:30:52;99771.33;;;11.27;38.86
74881;BME280;63427;49.654;6.596;2023-03-21T07:33:16;99776.06;;;11.48;38.37
74881;BME280;63427;49.654;6.596;2023-03-21T07:35:41;99776.45;;;11.54;38.52
74881;BME280;63427;49.654;6.596;2023-03-21T07:38:07;99776.77;;;11.23;39.20
74881;BME280;63427;49.654;6.596;2023-03-21T07:40:32;99780.10;;;11.31;39.08
74881;BME280;63427;49.654;6.596;2023-03-21T07:42:58;99780.33;;;11.21;39.19
74881;BME280;63427;49.654;6.596;2023-03-21T07:45:24;99777.97;;;11.28;38.99
74881;BME280;63427;49.654;6.596;2023-03-21T07:47:49;99779.32;;;11.62;38.77
74881;BME280;63427;49.654;6.596;2023-03-21T07:50:15;99782.93;;;11.57;38.69
74881;BME280;63427;49.654;6.596;2023-03-21T07:52:39;99785.38;;;11.48;38.55
74881;BME280;63427;49.654;6.596;2023-03-21T07:55:05;99786.48;;;11.76;38.50
74881;BME280;63427;49.654;6.596;2023-03-21T07:57:30;99781.82;;;11.68;38.40
74881;BME280;63427;49.654;6.596;2023-03-21T07:59:56;99779.16;;;11.96;38.35
74881;BME280;63427;49.654;6.596;2023-03-21T08:02:21;99779.72;;;11.94;37.73
74881;BME280;63427;49.654;6.596;2023-03-21T08:04:46;99778.52;;;12.13;37.77
74881;BME280;63427;49.654;6.596;2023-03-21T08:07:12;99778.26;;;12.15;38.01
74881;BME280;63427;49.654;6.596;2023-03-21T08:09:37;99774.86;;;12.44;37.25
74881;BME280;63427;49.654;6.596;2023-03-21T08:12:03;99770.77;;;12.28;37.63
74881;BME280;63427;49.654;6.596;2023-03-21T08:14:28;99767.69;;;12.34;37.67
74881;BME280;63427;49.654;6.596;2023-03-21T08:16:54;99769.26;;;11.20;38.94
74881;BME280;63427;49.654;6.596;2023-03-21T08:19:19;99766.63;;;12.23;37.83
74881;BME280;63427;49.654;6.596;2023-03-21T08:21:45;99765.62;;;11.90;37.61
74881;BME280;63427;49.654;6.596;2023-03-21T08:24:10;99763.32;;;12.27;37.33
74881;BME280;63427;49.654;6.596;2023-03-21T08:26:36;99761.64;;;12.60;36.99
74881;BME280;63427;49.654;6.596;2023-03-21T08:29:02;99762.42;;;12.72;37.26
74881;BME280;63427;49.654;6.596;2023-03-21T08:31:27;99760.82;;;12.47;37.12
74881;BME280;63427;49.654;6.596;2023-03-21T08:33:52;99762.78;;;12.83;36.94
74881;BME280;63427;49.654;6.596;2023-03-21T08:36:17;99766.65;;;12.63;37.21
74881;BME280;63427;49.654;6.596;2023-03-21T08:38:43;99770.80;;;13.02;37.21
74881;BME280;63427;49.654;6.596;2023-03-21T08:41:09;99770.23;;;13.09;37.02
74881;BME280;63427;49.654;6.596;2023-03-21T08:43:34;99772.33;;;13.16;37.66
74881;BME280;63427;49.654;6.596;2023-03-21T08:46:00;99774.45;;;13.40;37.75
74881;BME280;63427;49.654;6.596;2023-03-21T08:48:26;99773.87;;;13.72;37.17
74881;BME280;63427;49.654;6.596;2023-03-21T08:50:51;99775.85;;;13.37;37.30
74881;BME280;63427;49.654;6.596;2023-03-21T08:53:17;99773.94;;;14.01;38.40
74881;BME280;63427;49.654;6.596;2023-03-21T08:55:42;99773.61;;;13.86;38.14
74881;BME280;63427;49.654;6.596;2023-03-21T08:58:08;99775.20;;;13.81;37.28
74881;BME280;63427;49.654;6.596;2023-03-21T09:00:33;99778.90;;;13.34;37.34
74881;BME280;63427;49.654;6.596;2023-03-21T09:02:59;99776.85;;;13.52;37.08
74881;BME280;63427;49.654;6.596;2023-03-21T09:05:24;99780.66;;;13.58;37.50
74881;BME280;63427;49.654;6.596;2023-03-21T09:07:50;99778.28;;;13.65;36.86
74881;BME280;63427;49.654;6.596;2023-03-21T09:10:17;99776.12;;;13.47;37.68
74881;BME280;63427;49.654;6.596;2023-03-21T09:12:41;99778.77;;;13.62;37.05
74881;BME280;63427;49.654;6.596;2023-03-21T09:15:07;99777.78;;;14.14;37.35
74881;BME280;63427;49.654;6.596;2023-03-21T09:17:32;99782.66;;;13.89;36.38
74881;BME280;63427;49.654;6.596;2023-03-21T09:19:57;99782.86;;;13.90;36.46
74881;BME280;63427;49.654;6.596;2023-03-21T09:22:23;99781.95;;;13.81;37.30
74881;BME280;63427;49.654;6.596;2023-03-21T09:24:48;99778.34;;;13.86;37.45
74881;BME280;63427;49.654;6.596;2023-03-21T09:27:13;99769.95;;;13.96;36.84
74881;BME280;63427;49.654;6.596;2023-03-21T09:29:38;99770.84;;;14.07;36.92
74881;BME280;63427;49.654;6.596;2023-03-21T09:32:05;99771.40;;;14.21;37.62
74881;BME280;63427;49.654;6.596;2023-03-21T09:34:30;99774.70;;;14.10;37.38
74881;BME280;63427;49.654;6.596;2023-03-21T09:36:55;99775.79;;;14.59;37.15
74881;BME280;63427;49.654;6.596;2023-03-21T09:39:22;99772.41;;;14.23;37.14
74881;BME280;63427;49.654;6.596;2023-03-21T09:41:56;99767.54;;;14.35;36.49
74881;BME280;63427;49.654;6.596;2023-03-21T09:44:23;99767.81;;;14.17;35.76
74881;BME280;63427;49.654;6.596;2023-03-21T09:46:41;99767.62;;;14.66;35.57
74881;BME280;63427;49.654;6.596;2023-03-21T09:49:04;99772.20;;;14.59;35.59
74881;BME280;63427;49.654;6.596;2023-03-21T09:51:31;99769.08;;;14.80;36.28
74881;BME280;63427;49.654;6.596;2023-03-21T09:53:54;99767.29;;;14.61;34.14
74881;BME280;63427;49.654;6.596;2023-03-21T09:56:18;99760.80;;;14.32;34.62
74881;BME280;63427;49.654;6.596;2023-03-21T09:58:46;99759.25;;;14.23;35.55
74881;BME280;63427;49.654;6.596;2023-03-21T10:01:14;99749.76;;;14.66;34.42
74881;BME280;63427;49.654;6.596;2023-03-21T10:03:36;99747.62;;;14.17;34.69
74881;BME280;63427;49.654;6.596;2023-03-21T10:06:04;99749.94;;;14.40;35.10
74881;BME280;63427;49.654;6.596;2023-03-21T10:08:28;99751.29;;;14.64;35.05
74881;BME280;63427;49.654;6.596;2023-03-21T10:10:54;99746.35;;;14.54;34.97
74881;BME280;63427;49.654;6.596;2023-03-21T10:13:20;99750.97;;;14.71;35.06
74881;BME280;63427;49.654;6.596;2023-03-21T10:15:42;99750.15;;;14.45;34.70
74881;BME280;63427;49.654;6.596;2023-03-21T10:18:12;99748.89;;;14.62;34.60
74881;BME280;63427;49.654;6.596;2023-03-21T10:20:35;99753.42;;;14.25;34.76
74881;BME280;63427;49.654;6.596;2023-03-21T10:23:00;99752.17;;;14.74;34.81
74881;BME280;63427;49.654;6.596;2023-03-21T10:25:29;99757.63;;;14.65;35.69
74881;BME280;63427;49.654;6.596;2023-03-21T10:27:50;99758.88;;;14.59;35.58
74881;BME280;63427;49.654;6.596;2023-03-21T10:30:25;99760.87;;;14.54;35.67
74881;BME280;63427;49.654;6.596;2023-03-21T10:32:40;99760.10;;;14.21;36.02
74881;BME280;63427;49.654;6.596;2023-03-21T10:35:08;99755.94;;;14.50;35.81
74881;BME280;63427;49.654;6.596;2023-03-21T10:37:31;99749.94;;;14.89;36.06
74881;BME280;63427;49.654;6.596;2023-03-21T10:39:56;99748.55;;;14.82;35.01
74881;BME280;63427;49.654;6.596;2023-03-21T10:42:23;99752.92;;;14.70;35.36
74881;BME280;63427;49.654;6.596;2023-03-21T10:44:48;99749.90;;;14.64;36.50
74881;BME280;63427;49.654;6.596;2023-03-21T10:47:19;99750.12;;;14.67;35.87
74881;BME280;63427;49.654;6.596;2023-03-21T10:49:38;99745.16;;;14.65;35.98
74881;BME280;63427;49.654;6.596;2023-03-21T10:52:06;99745.07;;;14.36;36.72
74881;BME280;63427;49.654;6.596;2023-03-21T10:54:31;99735.15;;;14.39;35.72
74881;BME280;63427;49.654;6.596;2023-03-21T10:56:56;99738.30;;;14.58;36.18
74881;BME280;63427;49.654;6.596;2023-03-21T10:59:20;99732.77;;;14.57;35.23
74881;BME280;63427;49.654;6.596;2023-03-21T11:01:47;99728.98;;;14.74;36.57
74881;BME280;63427;49.654;6.596;2023-03-21T11:04:14;99722.75;;;14.78;36.72
74881;BME280;63427;49.654;6.596;2023-03-21T11:06:38;99720.99;;;14.83;36.98
74881;BME280;63427;49.654;6.596;2023-03-21T11:09:05;99716.88;;;15.20;36.31
74881;BME280;63427;49.654;6.596;2023-03-21T11:11:28;99711.67;;;15.14;36.74
74881;BME280;63427;49.654;6.596;2023-03-21T11:13:57;99706.93;;;15.56;35.46
74881;BME280;63427;49.654;6.596;2023-03-21T11:16:22;99707.77;;;15.41;35.83
74881;BME280;63427;49.654;6.596;2023-03-21T11:18:48;99704.30;;;15.66;35.46
74881;BME280;63427;49.654;6.596;2023-03-21T11:21:10;99694.90;;;15.57;35.66
74881;BME280;63427;49.654;6.596;2023-03-21T11:23:36;99689.85;;;15.88;35.60
74881;BME280;63427;49.654;6.596;2023-03-21T11:26:00;99682.14;;;15.72;35.00
74881;BME280;63427;49.654;6.596;2023-03-21T11:28:26;99677.14;;;15.69;34.68
74881;BME280;63427;49.654;6.596;2023-03-21T11:30:52;99672.51;;;15.80;34.40
74881;BME280;63427;49.654;6.596;2023-03-21T11:33:17;99664.53;;;15.94;34.52
74881;BME280;63427;49.654;6.596;2023-03-21T11:35:40;99665.54;;;15.99;35.00
74881;BME280;63427;49.654;6.596;2023-03-21T11:40:33;99660.19;;;16.01;33.71
74881;BME280;63427;49.654;6.596;2023-03-21T11:42:57;99659.23;;;16.20;34.23
74881;BME280;63427;49.654;6.596;2023-03-21T11:45:23;99659.76;;;16.15;33.39
74881;BME280;63427;49.654;6.596;2023-03-21T11:47:48;99656.13;;;16.40;32.71
74881;BME280;63427;49.654;6.596;2023-03-21T11:50:17;99655.90;;;15.80;33.38
74881;BME280;63427;49.654;6.596;2023-03-21T11:52:44;99655.54;;;15.74;33.13
74881;BME280;63427;49.654;6.596;2023-03-21T11:55:14;99659.31;;;15.84;33.86
74881;BME280;63427;49.654;6.596;2023-03-21T11:57:32;99648.83;;;16.06;34.07
74881;BME280;63427;49.654;6.596;2023-03-21T11:59:58;99642.72;;;15.94;34.34
74881;BME280;63427;49.654;6.596;2023-03-21T12:02:39;99634.97;;;16.14;33.15
74881;BME280;63427;49.654;6.596;2023-03-21T12:04:47;99618.94;;;16.04;33.43
74881;BME280;63427;49.654;6.596;2023-03-21T12:07:25;99610.81;;;16.28;33.24
74881;BME280;63427;49.654;6.596;2023-03-21T12:09:38;99593.97;;;16.69;33.75
74881;BME280;63427;49.654;6.596;2023-03-21T12:12:08;99578.56;;;16.52;32.96
74881;BME280;63427;49.654;6.596;2023-03-21T12:14:31;99550.35;;;16.43;31.79
74881;BME280;63427;49.654;6.596;2023-03-21T12:17:02;99533.50;;;15.04;33.05
74881;BME280;63427;49.654;6.596;2023-03-21T12:21:51;99554.95;;;16.03;32.34
74881;BME280;63427;49.654;6.596;2023-03-21T12:24:11;99544.95;;;15.78;32.68
74881;BME280;63427;49.654;6.596;2023-03-21T12:26:38;99540.22;;;15.52;31.58
74881;BME280;63427;49.654;6.596;2023-03-21T12:29:13;99541.55;;;15.06;32.60
74881;BME280;63427;49.654;6.596;2023-03-21T12:31:29;99550.10;;;15.88;31.55
74881;BME280;63427;49.654;6.596;2023-03-21T12:34:00;99550.61;;;15.88;32.05
74881;BME280;63427;49.654;6.596;2023-03-21T12:36:25;99561.13;;;16.05;31.34
74881;BME280;63427;49.654;6.596;2023-03-21T12:38:43;99564.85;;;15.89;31.95
74881;BME280;63427;49.654;6.596;2023-03-21T12:41:15;99579.02;;;16.05;31.21
74881;BME280;63427;49.654;6.596;2023-03-21T12:43:36;99587.86;;;15.41;31.74
74881;BME280;63427;49.654;6.596;2023-03-21T12:45:59;99592.69;;;15.33;32.67
74881;BME280;63427;49.654;6.596;2023-03-21T12:48:29;99598.33;;;15.57;33.99
74881;BME280;63427;49.654;6.596;2023-03-21T12:50:47;99599.65;;;15.42;33.31
74881;BME280;63427;49.654;6.596;2023-03-21T12:53:24;99598.31;;;15.72;34.46
74881;BME280;63427;49.654;6.596;2023-03-21T12:55:38;99588.19;;;15.96;33.37
74881;BME280;63427;49.654;6.596;2023-03-21T12:58:04;99598.71;;;15.73;33.52
74881;BME280;63427;49.654;6.596;2023-03-21T13:00:33;99596.32;;;15.95;33.65